sensor_id;sensor_type;location;lat;lon;timestamp;P1;P2;P0
70197;PMS5003;57582;-34.876;138.628;2023-07-02T00:03:00;0.00;0.00;0.00
70197;PMS5003;57582;-34.876;138.628;2023-07-02T00:05:57;0.30;0.30;0.00
70197;PMS5003;57582;-34.876;138.628;2023-07-02T00:08:58;0.03;0.03;0.03
70197;PMS5003;57582;-34.876;138.628;2023-07-02T00:11:58;0.07;0.00;0.00
70197;PMS5003;57582;-34.876;138.628;2023-07-02T00:14:57;0.00;0.00;0.00
70197;PMS5003;57582;-34.876;138.628;2023-07-02T00:17:58;0.00;0.00;0.00
70197;PMS5003;57582;-34.876;138.628;2023-07-02T00:20:57;0.00;0.00;0.00
70197;PMS5003;57582;-34.876;138.628;2023-07-02T00:23:59;0.00;0.00;0.00
70197;PMS5003;57582;-34.876;138.628;2023-07-02T00:26:57;0.40;0.40;0.00
70197;PMS5003;57582;-34.876;138.628;2023-07-02T00:29:58;0.23;0.23;0.00
70197;PMS5003;57582;-34.876;138.628;2023-07-02T00:32:58;0.00;0.00;0.00
70197;PMS5003;57582;-34.876;138.628;2023-07-02T00:35:58;0.00;0.00;0.00
70197;PMS5003;57582;-34.876;138.628;2023-07-02T00:38:58;0.00;0.00;0.00
70197;PMS5003;57582;-34.876;138.628;2023-07-02T00:42:02;0.00;0.00;0.00
70197;PMS5003;57582;-34.876;138.628;2023-07-02T00:44:57;4.50;4.50;3.83
70197;PMS5003;57582;-34.876;138.628;2023-07-02T00:47:59;0.93;0.93;0.63
70197;PMS5003;57582;-34.876;138.628;2023-07-02T00:50:57;0.00;0.00;0.00
70197;PMS5003;57582;-34.876;138.628;2023-07-02T00:53:58;0.00;0.00;0.00
70197;PMS5003;57582;-34.876;138.628;2023-07-02T00:56:58;0.00;0.00;0.00
70197;PMS5003;57582;-34.876;138.628;2023-07-02T00:59:59;0.00;0.00;0.00
70197;PMS5003;57582;-34.876;138.628;2023-07-02T01:02:57;0.00;0.00;0.00
70197;PMS5003;57582;-34.876;138.628;2023-07-02T01:05:57;0.00;0.00;0.00
70197;PMS5003;57582;-34.876;138.628;2023-07-02T01:09:01;0.00;0.00;0.00
70197;PMS5003;57582;-34.876;138.628;2023-07-02T01:12:00;0.00;0.00;0.00
70197;PMS5003;57582;-34.876;138.628;2023-07-02T01:15:02;0.00;0.00;0.00
70197;PMS5003;57582;-34.876;138.628;2023-07-02T01:17:58;0.00;0.00;0.00
70197;PMS5003;57582;-34.876;138.628;2023-07-02T01:20:57;0.00;0.00;0.00
70197;PMS5003;57582;-34.876;138.628;2023-07-02T01:24:00;0.00;0.00;0.00
70197;PMS5003;57582;-34.876;138.628;2023-07-02T01:26:58;0.00;0.00;0.00
70197;PMS5003;57582;-34.876;138.628;2023-07-02T01:29:57;0.00;0.00;0.00
70197;PMS5003;57582;-34.876;138.628;2023-07-02T01:32:57;0.20;0.20;0.00
70197;PMS5003;57582;-34.876;138.628;2023-07-02T01:35:58;0.00;0.00;0.00
70197;PMS5003;57582;-34.876;138.628;2023-07-02T01:38:57;0.47;0.00;0.00
70197;PMS5003;57582;-34.876;138.628;2023-07-02T01:42:08;0.00;0.00;0.00
70197;PMS5003;57582;-34.876;138.628;2023-07-02T01:44:58;0.10;0.10;0.00
70197;PMS5003;57582;-34.876;138.628;2023-07-02T01:47:58;0.53;0.00;0.00
70197;PMS5003;57582;-34.876;138.628;2023-07-02T01:50:58;0.00;0.00;0.00
70197;PMS5003;57582;-34.876;138.628;2023-07-02T01:53:57;0.00;0.00;0.00
70197;PMS5003;57582;-34.876;138.628;2023-07-02T01:56:58;0.00;0.00;0.00
70197;PMS5003;57582;-34.876;138.628;2023-07-02T01:59:58;0.00;0.00;0.00
70197;PMS5003;57582;-34.876;138.628;2023-07-02T02:02:58;0.00;0.00;0.00
70197;PMS5003;57582;-34.876;138.628;2023-07-02T02:05:58;0.00;0.00;0.00
70197;PMS5003;57582;-34.876;138.628;2023-07-02T02:08:58;0.00;0.00;0.00
70197;PMS5003;57582;-34.876;138.628;2023-07-02T02:11:58;0.00;0.00;0.00
70197;PMS5003;57582;-34.876;138.628;2023-07-02T02:14:58;0.00;0.00;0.00
70197;PMS5003;57582;-34.876;138.628;2023-07-02T02:17:58;0.00;0.00;0.00
70197;PMS5003;57582;-34.876;138.628;2023-07-02T02:20:58;0.90;0.00;0.00
70197;PMS5003;57582;-34.876;138.628;2023-07-02T02:23:58;0.00;0.00;0.00
70197;PMS5003;57582;-34.876;138.628;2023-07-02T02:26:58;4.43;4.43;3.13
70197;PMS5003;57582;-34.876;138.628;2023-07-02T02:29:58;1.40;1.40;1.13
70197;PMS5003;57582;-34.876;138.628;2023-07-02T02:32:58;0.80;0.33;0.00
70197;PMS5003;57582;-34.876;138.628;2023-07-02T02:35:58;1.00;0.00;0.00
70197;PMS5003;57582;-34.876;138.628;2023-07-02T02:38:58;0.50;0.50;0.00
70197;PMS5003;57582;-34.876;138.628;2023-07-02T02:41:58;1.07;1.07;0.00
70197;PMS5003;57582;-34.876;138.628;2023-07-02T02:44:58;0.13;0.13;0.00
70197;PMS5003;57582;-34.876;138.628;2023-07-02T02:47:59;0.53;0.00;0.00
70197;PMS5003;57582;-34.876;138.628;2023-07-02T02:50:58;0.00;0.00;0.00
70197;PMS5003;57582;-34.876;138.628;2023-07-02T02:53:58;0.00;0.00;0.00
70197;PMS5003;57582;-34.876;138.628;2023-07-02T02:56:58;0.00;0.00;0.00
70197;PMS5003;57582;-34.876;138.628;2023-07-02T02:59:58;0.00;0.00;0.00
70197;PMS5003;57582;-34.876;138.628;2023-07-02T03:02:59;0.00;0.00;0.00
70197;PMS5003;57582;-34.876;138.628;2023-07-02T03:05:58;0.00;0.00;0.00
70197;PMS5003;57582;-34.876;138.628;2023-07-02T03:08:58;0.00;0.00;0.00
70197;PMS5003;57582;-34.876;138.628;2023-07-02T03:11:58;2.17;1.70;0.00
70197;PMS5003;57582;-34.876;138.628;2023-07-02T03:14:58;0.57;0.57;0.00
70197;PMS5003;57582;-34.876;138.628;2023-07-02T03:17:59;0.77;0.77;0.00
70197;PMS5003;57582;-34.876;138.628;2023-07-02T03:20:59;0.20;0.00;0.00
70197;PMS5003;57582;-34.876;138.628;2023-07-02T03:23:59;0.00;0.00;0.00
70197;PMS5003;57582;-34.876;138.628;2023-07-02T03:26:58;0.00;0.00;0.00
70197;PMS5003;57582;-34.876;138.628;2023-07-02T03:29:58;0.10;0.00;0.00
70197;PMS5003;57582;-34.876;138.628;2023-07-02T03:32:58;0.00;0.00;0.00
70197;PMS5003;57582;-34.876;138.628;2023-07-02T03:35:59;0.00;0.00;0.00
70197;PMS5003;57582;-34.876;138.628;2023-07-02T03:38:58;0.00;0.00;0.00
70197;PMS5003;57582;-34.876;138.628;2023-07-02T03:41:58;0.40;0.40;0.10
70197;PMS5003;57582;-34.876;138.628;2023-07-02T03:44:58;0.13;0.13;0.00
70197;PMS5003;57582;-34.876;138.628;2023-07-02T03:47:59;0.37;0.37;0.00
70197;PMS5003;57582;-34.876;138.628;2023-07-02T03:50:58;4.00;2.77;1.80
70197;PMS5003;57582;-34.876;138.628;2023-07-02T03:53:59;0.20;0.20;0.13
70197;PMS5003;57582;-34.876;138.628;2023-07-02T03:56:58;2.37;2.27;2.00
70197;PMS5003;57582;-34.876;138.628;2023-07-02T03:59:58;0.47;0.47;0.33
70197;PMS5003;57582;-34.876;138.628;2023-07-02T04:02:58;1.53;1.13;0.00
70197;PMS5003;57582;-34.876;138.628;2023-07-02T04:05:58;0.00;0.00;0.00
70197;PMS5003;57582;-34.876;138.628;2023-07-02T04:08:58;0.63;0.63;0.37
70197;PMS5003;57582;-34.876;138.628;2023-07-02T04:12:00;1.60;1.60;1.20
70197;PMS5003;57582;-34.876;138.628;2023-07-02T04:14:58;0.90;0.90;0.27
70197;PMS5003;57582;-34.876;138.628;2023-07-02T04:17:58;14.60;13.63;7.00
70197;PMS5003;57582;-34.876;138.628;2023-07-02T04:20:59;0.00;0.00;0.00
70197;PMS5003;57582;-34.876;138.628;2023-07-02T04:23:58;1.17;1.17;0.30
70197;PMS5003;57582;-34.876;138.628;2023-07-02T04:26:58;1.23;0.13;0.00
70197;PMS5003;57582;-34.876;138.628;2023-07-02T04:29:58;0.07;0.07;0.00
70197;PMS5003;57582;-34.876;138.628;2023-07-02T04:32:58;0.13;0.13;0.00
70197;PMS5003;57582;-34.876;138.628;2023-07-02T04:35:59;0.80;0.00;0.00
70197;PMS5003;57582;-34.876;138.628;2023-07-02T04:38:58;0.03;0.00;0.00
70197;PMS5003;57582;-34.876;138.628;2023-07-02T04:41:58;0.83;0.00;0.00
70197;PMS5003;57582;-34.876;138.628;2023-07-02T04:44:58;0.93;0.63;0.00
70197;PMS5003;57582;-34.876;138.628;2023-07-02T04:47:59;0.00;0.00;0.00
70197;PMS5003;57582;-34.876;138.628;2023-07-02T04:50:58;0.03;0.03;0.00
70197;PMS5003;57582;-34.876;138.628;2023-07-02T04:53:58;0.00;0.00;0.00
70197;PMS5003;57582;-34.876;138.628;2023-07-02T04:56:58;0.10;0.10;0.00
70197;PMS5003;57582;-34.876;138.628;2023-07-02T04:59:58;0.27;0.27;0.13
70197;PMS5003;57582;-34.876;138.628;2023-07-02T05:02:58;0.33;0.33;0.07
70197;PMS5003;57582;-34.876;138.628;2023-07-02T05:05:58;0.90;0.90;0.50
70197;PMS5003;57582;-34.876;138.628;2023-07-02T05:08:58;0.03;0.03;0.00
70197;PMS5003;57582;-34.876;138.628;2023-07-02T05:11:59;1.13;1.13;0.30
70197;PMS5003;57582;-34.876;138.628;2023-07-02T05:14:58;0.57;0.57;0.10
70197;PMS5003;57582;-34.876;138.628;2023-07-02T05:17:58;0.47;0.20;0.00
70197;PMS5003;57582;-34.876;138.628;2023-07-02T05:20:58;2.20;2.20;1.30
70197;PMS5003;57582;-34.876;138.628;2023-07-02T05:23:58;0.40;0.40;0.03
70197;PMS5003;57582;-34.876;138.628;2023-07-02T05:26:58;7.20;5.03;3.00
70197;PMS5003;57582;-34.876;138.628;2023-07-02T05:29:58;5.43;5.17;2.60
70197;PMS5003;57582;-34.876;138.628;2023-07-02T05:32:58;6.47;6.47;2.87
70197;PMS5003;57582;-34.876;138.628;2023-07-02T05:35:59;12.93;10.00;6.70
70197;PMS5003;57582;-34.876;138.628;2023-07-02T05:38:58;3.43;3.30;1.43
70197;PMS5003;57582;-34.876;138.628;2023-07-02T05:41:58;0.87;0.80;0.00
70197;PMS5003;57582;-34.876;138.628;2023-07-02T05:44:58;0.47;0.47;0.13
70197;PMS5003;57582;-34.876;138.628;2023-07-02T05:47:58;0.83;0.83;0.00
70197;PMS5003;57582;-34.876;138.628;2023-07-02T05:50:58;1.00;1.00;0.43
70197;PMS5003;57582;-34.876;138.628;2023-07-02T05:53:58;0.03;0.03;0.03
70197;PMS5003;57582;-34.876;138.628;2023-07-02T05:56:58;1.00;0.50;0.00
70197;PMS5003;57582;-34.876;138.628;2023-07-02T05:59:58;0.83;0.60;0.00
70197;PMS5003;57582;-34.876;138.628;2023-07-02T06:02:58;1.27;1.27;0.13
70197;PMS5003;57582;-34.876;138.628;2023-07-02T06:05:58;1.00;1.00;0.00
70197;PMS5003;57582;-34.876;138.628;2023-07-02T06:08:58;2.13;0.90;0.03
70197;PMS5003;57582;-34.876;138.628;2023-07-02T06:11:59;0.70;0.70;0.00
70197;PMS5003;57582;-34.876;138.628;2023-07-02T06:14:58;0.23;0.23;0.13
70197;PMS5003;57582;-34.876;138.628;2023-07-02T06:17:58;0.80;0.80;0.30
70197;PMS5003;57582;-34.876;138.628;2023-07-02T06:20:58;0.73;0.73;0.20
70197;PMS5003;57582;-34.876;138.628;2023-07-02T06:24:01;1.03;1.03;0.50
70197;PMS5003;57582;-34.876;138.628;2023-07-02T06:26:58;1.57;1.57;0.00
70197;PMS5003;57582;-34.876;138.628;2023-07-02T06:29:58;0.40;0.40;0.00
70197;PMS5003;57582;-34.876;138.628;2023-07-02T06:32:58;0.83;0.53;0.00
70197;PMS5003;57582;-34.876;138.628;2023-07-02T06:35:58;0.43;0.30;0.00
70197;PMS5003;57582;-34.876;138.628;2023-07-02T06:38:58;0.47;0.03;0.00
70197;PMS5003;57582;-34.876;138.628;2023-07-02T06:41:58;1.50;0.20;0.00
70197;PMS5003;57582;-34.876;138.628;2023-07-02T06:44:58;0.80;0.67;0.00
70197;PMS5003;57582;-34.876;138.628;2023-07-02T06:47:59;0.00;0.00;0.00
70197;PMS5003;57582;-34.876;138.628;2023-07-02T06:50:58;0.93;0.93;0.00
70197;PMS5003;57582;-34.876;138.628;2023-07-02T06:53:58;0.83;0.83;0.00
70197;PMS5003;57582;-34.876;138.628;2023-07-02T06:56:58;1.00;0.90;0.23
70197;PMS5003;57582;-34.876;138.628;2023-07-02T06:59:59;0.90;0.90;0.00
70197;PMS5003;57582;-34.876;138.628;2023-07-02T07:02:58;0.07;0.07;0.00
70197;PMS5003;57582;-34.876;138.628;2023-07-02T07:05:58;2.20;2.20;0.90
70197;PMS5003;57582;-34.876;138.628;2023-07-02T07:08:58;0.93;0.93;0.23
70197;PMS5003;57582;-34.876;138.628;2023-07-02T07:11:58;0.57;0.57;0.00
70197;PMS5003;57582;-34.876;138.628;2023-07-02T07:14:58;0.03;0.03;0.00
70197;PMS5003;57582;-34.876;138.628;2023-07-02T07:17:58;0.10;0.10;0.10
70197;PMS5003;57582;-34.876;138.628;2023-07-02T07:20:58;0.77;0.77;0.60
70197;PMS5003;57582;-34.876;138.628;2023-07-02T07:23:59;1.13;0.73;0.60
70197;PMS5003;57582;-34.876;138.628;2023-07-02T07:26:58;0.23;0.23;0.03
70197;PMS5003;57582;-34.876;138.628;2023-07-02T07:29:58;1.07;1.07;0.23
70197;PMS5003;57582;-34.876;138.628;2023-07-02T07:32:58;0.47;0.47;0.00
70197;PMS5003;57582;-34.876;138.628;2023-07-02T07:35:59;0.90;0.30;0.00
70197;PMS5003;57582;-34.876;138.628;2023-07-02T07:38:58;0.97;0.97;0.17
70197;PMS5003;57582;-34.876;138.628;2023-07-02T07:41:58;0.50;0.20;0.00
70197;PMS5003;57582;-34.876;138.628;2023-07-02T07:44:58;0.87;0.87;0.20
70197;PMS5003;57582;-34.876;138.628;2023-07-02T07:47:59;0.33;0.00;0.00
70197;PMS5003;57582;-34.876;138.628;2023-07-02T07:50:58;0.60;0.60;0.00
70197;PMS5003;57582;-34.876;138.628;2023-07-02T07:53:58;0.47;0.47;0.00
70197;PMS5003;57582;-34.876;138.628;2023-07-02T07:56:58;1.40;1.40;0.83
70197;PMS5003;57582;-34.876;138.628;2023-07-02T07:59:59;1.77;1.77;1.07
70197;PMS5003;57582;-34.876;138.628;2023-07-02T08:02:58;4.17;3.73;1.70
70197;PMS5003;57582;-34.876;138.628;2023-07-02T08:05:58;2.20;2.20;1.67
70197;PMS5003;57582;-34.876;138.628;2023-07-02T08:08:58;2.07;1.97;1.30
70197;PMS5003;57582;-34.876;138.628;2023-07-02T08:11:59;2.50;2.50;1.07
70197;PMS5003;57582;-34.876;138.628;2023-07-02T08:14:58;6.67;6.20;3.27
70197;PMS5003;57582;-34.876;138.628;2023-07-02T08:17:58;6.47;6.07;3.47
70197;PMS5003;57582;-34.876;138.628;2023-07-02T08:20:58;6.83;4.67;2.00
70197;PMS5003;57582;-34.876;138.628;2023-07-02T08:23:59;3.07;2.60;1.47
70197;PMS5003;57582;-34.876;138.628;2023-07-02T08:26:58;4.87;3.37;2.20
70197;PMS5003;57582;-34.876;138.628;2023-07-02T08:29:58;3.73;2.83;1.03
70197;PMS5003;57582;-34.876;138.628;2023-07-02T08:32:58;2.43;1.93;1.00
70197;PMS5003;57582;-34.876;138.628;2023-07-02T08:35:59;2.10;2.10;1.10
70197;PMS5003;57582;-34.876;138.628;2023-07-02T08:38:58;2.87;2.87;1.97
70197;PMS5003;57582;-34.876;138.628;2023-07-02T08:41:58;13.33;10.93;7.53
70197;PMS5003;57582;-34.876;138.628;2023-07-02T08:44:59;11.30;10.63;6.67
70197;PMS5003;57582;-34.876;138.628;2023-07-02T08:47:59;7.33;7.33;4.07
70197;PMS5003;57582;-34.876;138.628;2023-07-02T08:50:58;9.33;9.33;6.20
70197;PMS5003;57582;-34.876;138.628;2023-07-02T08:53:58;11.60;10.87;6.77
70197;PMS5003;57582;-34.876;138.628;2023-07-02T08:56:58;12.17;11.33;7.23
70197;PMS5003;57582;-34.876;138.628;2023-07-02T08:59:59;12.43;11.47;7.10
70197;PMS5003;57582;-34.876;138.628;2023-07-02T09:02:58;10.17;8.80;5.93
70197;PMS5003;57582;-34.876;138.628;2023-07-02T09:05:58;7.33;5.60;3.70
70197;PMS5003;57582;-34.876;138.628;2023-07-02T09:09:06;9.23;7.90;4.77
70197;PMS5003;57582;-34.876;138.628;2023-07-02T09:11:59;10.13;9.57;6.10
70197;PMS5003;57582;-34.876;138.628;2023-07-02T09:15:00;11.33;10.57;6.77
70197;PMS5003;57582;-34.876;138.628;2023-07-02T09:17:59;7.47;6.73;3.40
70197;PMS5003;57582;-34.876;138.628;2023-07-02T09:20:58;7.00;7.00;5.10
70197;PMS5003;57582;-34.876;138.628;2023-07-02T09:23:59;6.53;5.27;3.87
70197;PMS5003;57582;-34.876;138.628;2023-07-02T09:27:00;8.60;8.60;5.10
70197;PMS5003;57582;-34.876;138.628;2023-07-02T09:30:05;8.03;7.83;4.87
70197;PMS5003;57582;-34.876;138.628;2023-07-02T09:33:06;6.93;5.70;2.60
70197;PMS5003;57582;-34.876;138.628;2023-07-02T09:35:59;7.93;7.93;3.67
70197;PMS5003;57582;-34.876;138.628;2023-07-02T09:38:58;8.43;7.70;4.73
70197;PMS5003;57582;-34.876;138.628;2023-07-02T09:42:00;9.53;7.67;4.20
70197;PMS5003;57582;-34.876;138.628;2023-07-02T09:44:59;2.50;1.97;1.10
70197;PMS5003;57582;-34.876;138.628;2023-07-02T09:47:59;10.93;10.10;6.40
70197;PMS5003;57582;-34.876;138.628;2023-07-02T09:50:59;11.00;9.80;4.93
70197;PMS5003;57582;-34.876;138.628;2023-07-02T09:53:58;9.83;9.83;5.97
70197;PMS5003;57582;-34.876;138.628;2023-07-02T09:56:59;11.77;9.47;5.60
70197;PMS5003;57582;-34.876;138.628;2023-07-02T10:00:00;9.43;7.73;4.67
70197;PMS5003;57582;-34.876;138.628;2023-07-02T10:02:58;8.13;6.97;4.33
70197;PMS5003;57582;-34.876;138.628;2023-07-02T10:06:07;9.50;9.50;5.60
70197;PMS5003;57582;-34.876;138.628;2023-07-02T10:08:58;6.97;6.97;5.13
70197;PMS5003;57582;-34.876;138.628;2023-07-02T10:11:59;11.40;9.90;6.23
70197;PMS5003;57582;-34.876;138.628;2023-07-02T10:14:59;11.80;10.50;7.27
70197;PMS5003;57582;-34.876;138.628;2023-07-02T10:18:01;14.97;12.43;7.67
70197;PMS5003;57582;-34.876;138.628;2023-07-02T10:20:59;14.87;14.83;10.03
70197;PMS5003;57582;-34.876;138.628;2023-07-02T10:24:09;10.43;9.30;4.80
70197;PMS5003;57582;-34.876;138.628;2023-07-02T10:27:00;8.90;8.23;4.60
70197;PMS5003;57582;-34.876;138.628;2023-07-02T10:29:58;6.70;6.03;4.13
70197;PMS5003;57582;-34.876;138.628;2023-07-02T10:33:09;5.87;5.87;2.80
70197;PMS5003;57582;-34.876;138.628;2023-07-02T10:35:59;6.63;6.53;2.80
70197;PMS5003;57582;-34.876;138.628;2023-07-02T10:39:02;6.57;5.70;2.93
70197;PMS5003;57582;-34.876;138.628;2023-07-02T10:42:07;8.47;8.27;4.60
70197;PMS5003;57582;-34.876;138.628;2023-07-02T10:44:58;9.43;9.20;4.00
70197;PMS5003;57582;-34.876;138.628;2023-07-02T10:47:59;8.97;7.60;4.00
70197;PMS5003;57582;-34.876;138.628;2023-07-02T10:50:59;9.20;8.23;3.97
70197;PMS5003;57582;-34.876;138.628;2023-07-02T10:54:00;8.30;7.70;4.13
70197;PMS5003;57582;-34.876;138.628;2023-07-02T10:56:59;11.97;10.00;4.43
70197;PMS5003;57582;-34.876;138.628;2023-07-02T11:00:08;14.77;12.87;5.30
70197;PMS5003;57582;-34.876;138.628;2023-07-02T11:02:59;14.07;12.93;7.60
70197;PMS5003;57582;-34.876;138.628;2023-07-02T11:05:58;12.50;9.00;4.80
70197;PMS5003;57582;-34.876;138.628;2023-07-02T11:08:59;6.93;6.87;4.03
70197;PMS5003;57582;-34.876;138.628;2023-07-02T11:12:01;7.33;6.10;3.00
70197;PMS5003;57582;-34.876;138.628;2023-07-02T11:18:10;6.50;6.50;4.03
70197;PMS5003;57582;-34.876;138.628;2023-07-02T11:21:09;6.73;6.73;3.40
70197;PMS5003;57582;-34.876;138.628;2023-07-02T11:24:03;7.07;6.13;3.07
70197;PMS5003;57582;-34.876;138.628;2023-07-02T11:27:03;4.73;4.73;2.03
70197;PMS5003;57582;-34.876;138.628;2023-07-02T11:30:00;4.87;4.87;3.03
70197;PMS5003;57582;-34.876;138.628;2023-07-02T11:32:59;5.73;5.10;2.87
70197;PMS5003;57582;-34.876;138.628;2023-07-02T11:35:59;3.20;3.20;2.30
70197;PMS5003;57582;-34.876;138.628;2023-07-02T11:38:58;4.83;3.87;2.27
70197;PMS5003;57582;-34.876;138.628;2023-07-02T11:41:59;6.40;6.20;2.73
70197;PMS5003;57582;-34.876;138.628;2023-07-02T11:44:58;4.37;4.37;1.87
70197;PMS5003;57582;-34.876;138.628;2023-07-02T11:47:59;4.97;4.27;2.20
70197;PMS5003;57582;-34.876;138.628;2023-07-02T11:50:58;4.93;4.93;3.20
70197;PMS5003;57582;-34.876;138.628;2023-07-02T11:53:58;6.10;4.53;2.53
70197;PMS5003;57582;-34.876;138.628;2023-07-02T11:56:59;3.50;3.10;1.47
70197;PMS5003;57582;-34.876;138.628;2023-07-02T11:59:59;2.93;2.93;1.40
70197;PMS5003;57582;-34.876;138.628;2023-07-02T12:02:58;2.03;2.03;1.17
70197;PMS5003;57582;-34.876;138.628;2023-07-02T12:05:58;2.73;2.60;1.40
70197;PMS5003;57582;-34.876;138.628;2023-07-02T12:08:59;1.87;1.80;1.00
70197;PMS5003;57582;-34.876;138.628;2023-07-02T12:11:59;3.40;3.40;1.37
70197;PMS5003;57582;-34.876;138.628;2023-07-02T12:14:59;2.97;1.93;0.57
70197;PMS5003;57582;-34.876;138.628;2023-07-02T12:17:58;2.33;2.13;0.70
70197;PMS5003;57582;-34.876;138.628;2023-07-02T12:20:59;2.20;2.20;1.00
70197;PMS5003;57582;-34.876;138.628;2023-07-02T12:24:00;2.13;2.13;1.20
70197;PMS5003;57582;-34.876;138.628;2023-07-02T12:26:58;3.67;3.67;1.33
70197;PMS5003;57582;-34.876;138.628;2023-07-02T12:29:58;9.77;9.63;7.30
70197;PMS5003;57582;-34.876;138.628;2023-07-02T12:32:59;2.90;2.30;0.00
70197;PMS5003;57582;-34.876;138.628;2023-07-02T12:35:59;4.07;4.00;2.17
70197;PMS5003;57582;-34.876;138.628;2023-07-02T12:38:58;1.97;1.97;0.83
70197;PMS5003;57582;-34.876;138.628;2023-07-02T12:41:59;2.40;1.97;1.10
70197;PMS5003;57582;-34.876;138.628;2023-07-02T12:44:58;1.60;0.80;0.37
70197;PMS5003;57582;-34.876;138.628;2023-07-02T12:47:59;2.70;2.70;1.30
70197;PMS5003;57582;-34.876;138.628;2023-07-02T12:50:59;2.50;2.50;1.40
70197;PMS5003;57582;-34.876;138.628;2023-07-02T12:53:59;2.80;2.00;0.93
70197;PMS5003;57582;-34.876;138.628;2023-07-02T12:56:58;3.47;2.40;1.70
70197;PMS5003;57582;-34.876;138.628;2023-07-02T13:00:00;3.17;2.63;1.10
70197;PMS5003;57582;-34.876;138.628;2023-07-02T13:02:58;5.27;4.33;1.00
70197;PMS5003;57582;-34.876;138.628;2023-07-02T13:05:58;3.10;2.40;0.77
70197;PMS5003;57582;-34.876;138.628;2023-07-02T13:08:58;0.83;0.83;0.33
70197;PMS5003;57582;-34.876;138.628;2023-07-02T13:11:59;1.53;1.53;0.77
70197;PMS5003;57582;-34.876;138.628;2023-07-02T13:14:59;1.57;1.57;0.57
70197;PMS5003;57582;-34.876;138.628;2023-07-02T13:17:58;1.43;1.10;0.30
70197;PMS5003;57582;-34.876;138.628;2023-07-02T13:20:58;1.90;1.90;0.60
70197;PMS5003;57582;-34.876;138.628;2023-07-02T13:24:00;2.93;2.53;1.47
70197;PMS5003;57582;-34.876;138.628;2023-07-02T13:26:59;2.13;2.13;1.00
70197;PMS5003;57582;-34.876;138.628;2023-07-02T13:29:59;3.83;2.27;1.37
70197;PMS5003;57582;-34.876;138.628;2023-07-02T13:32:59;2.47;2.47;1.23
70197;PMS5003;57582;-34.876;138.628;2023-07-02T13:36:01;2.10;2.10;1.00
70197;PMS5003;57582;-34.876;138.628;2023-07-02T13:38:59;0.90;0.90;0.40
70197;PMS5003;57582;-34.876;138.628;2023-07-02T13:41:59;1.80;1.80;0.90
70197;PMS5003;57582;-34.876;138.628;2023-07-02T13:44:59;2.57;2.13;1.27
70197;PMS5003;57582;-34.876;138.628;2023-07-02T13:47:59;2.37;2.37;1.60
70197;PMS5003;57582;-34.876;138.628;2023-07-02T13:50:59;3.40;3.40;1.33
70197;PMS5003;57582;-34.876;138.628;2023-07-02T13:53:59;2.20;2.20;0.87
70197;PMS5003;57582;-34.876;138.628;2023-07-02T13:56:59;2.60;2.60;1.00
70197;PMS5003;57582;-34.876;138.628;2023-07-02T13:59:59;1.93;1.93;1.00
70197;PMS5003;57582;-34.876;138.628;2023-07-02T14:02:59;2.97;2.27;1.00
70197;PMS5003;57582;-34.876;138.628;2023-07-02T14:05:59;2.60;1.60;1.00
70197;PMS5003;57582;-34.876;138.628;2023-07-02T14:08:59;2.17;1.70;1.20
70197;PMS5003;57582;-34.876;138.628;2023-07-02T14:12:00;4.30;2.60;1.30
70197;PMS5003;57582;-34.876;138.628;2023-07-02T14:14:59;2.77;2.77;1.70
70197;PMS5003;57582;-34.876;138.628;2023-07-02T14:17:59;4.13;4.13;1.47
70197;PMS5003;57582;-34.876;138.628;2023-07-02T14:20:59;3.10;2.70;1.83
70197;PMS5003;57582;-34.876;138.628;2023-07-02T14:23:59;1.57;1.53;0.53
70197;PMS5003;57582;-34.876;138.628;2023-07-02T14:26:59;2.70;2.37;0.10
70197;PMS5003;57582;-34.876;138.628;2023-07-02T14:29:59;3.63;1.93;0.93
70197;PMS5003;57582;-34.876;138.628;2023-07-02T14:32:59;1.47;1.47;0.73
70197;PMS5003;57582;-34.876;138.628;2023-07-02T14:36:00;2.93;2.00;1.00
70197;PMS5003;57582;-34.876;138.628;2023-07-02T14:38:59;2.47;1.77;0.60
70197;PMS5003;57582;-34.876;138.628;2023-07-02T14:41:59;2.93;2.93;0.70
70197;PMS5003;57582;-34.876;138.628;2023-07-02T14:44:59;1.53;1.53;0.53
70197;PMS5003;57582;-34.876;138.628;2023-07-02T14:47:59;1.57;1.57;0.70
70197;PMS5003;57582;-34.876;138.628;2023-07-02T14:51:00;1.00;1.00;0.47
70197;PMS5003;57582;-34.876;138.628;2023-07-02T14:53:59;2.57;2.57;0.80
70197;PMS5003;57582;-34.876;138.628;2023-07-02T14:56:59;1.47;1.47;1.17
70197;PMS5003;57582;-34.876;138.628;2023-07-02T15:00:00;1.63;1.63;1.03
70197;PMS5003;57582;-34.876;138.628;2023-07-02T15:02:59;1.63;1.63;1.00
70197;PMS5003;57582;-34.876;138.628;2023-07-02T15:06:12;2.10;1.40;0.50
70197;PMS5003;57582;-34.876;138.628;2023-07-02T15:08:59;1.50;1.47;0.57
70197;PMS5003;57582;-34.876;138.628;2023-07-02T15:11:59;11.33;10.73;6.73
70197;PMS5003;57582;-34.876;138.628;2023-07-02T15:14:59;8.00;7.63;5.07
70197;PMS5003;57582;-34.876;138.628;2023-07-02T15:17:59;13.77;12.40;8.20
70197;PMS5003;57582;-34.876;138.628;2023-07-02T15:20:59;8.30;8.30;5.27
70197;PMS5003;57582;-34.876;138.628;2023-07-02T15:23:59;6.57;6.57;3.90
70197;PMS5003;57582;-34.876;138.628;2023-07-02T15:26:59;6.03;6.03;3.50
70197;PMS5003;57582;-34.876;138.628;2023-07-02T15:29:59;8.17;8.10;6.30
70197;PMS5003;57582;-34.876;138.628;2023-07-02T15:32:59;9.13;8.43;5.53
70197;PMS5003;57582;-34.876;138.628;2023-07-02T15:36:01;5.73;5.73;4.43
70197;PMS5003;57582;-34.876;138.628;2023-07-02T15:38:59;5.80;4.60;2.73
70197;PMS5003;57582;-34.876;138.628;2023-07-02T15:41:59;1.43;1.33;0.70
70197;PMS5003;57582;-34.876;138.628;2023-07-02T15:45:00;2.83;2.83;2.27
70197;PMS5003;57582;-34.876;138.628;2023-07-02T15:47:59;5.30;4.37;1.93
70197;PMS5003;57582;-34.876;138.628;2023-07-02T15:50:59;3.50;3.50;1.90
70197;PMS5003;57582;-34.876;138.628;2023-07-02T15:53:59;2.80;2.27;1.23
70197;PMS5003;57582;-34.876;138.628;2023-07-02T15:56:59;3.10;2.20;1.37
70197;PMS5003;57582;-34.876;138.628;2023-07-02T16:00:00;3.57;3.33;2.20
70197;PMS5003;57582;-34.876;138.628;2023-07-02T16:03:16;2.13;2.13;0.73
70197;PMS5003;57582;-34.876;138.628;2023-07-02T16:05:59;2.30;2.30;1.00
70197;PMS5003;57582;-34.876;138.628;2023-07-02T16:09:02;2.43;1.50;0.47
70197;PMS5003;57582;-34.876;138.628;2023-07-02T16:12:01;0.27;0.27;0.00
70197;PMS5003;57582;-34.876;138.628;2023-07-02T16:14:59;0.53;0.53;0.17
70197;PMS5003;57582;-34.876;138.628;2023-07-02T16:17:59;1.00;1.00;0.33
70197;PMS5003;57582;-34.876;138.628;2023-07-02T16:21:01;0.40;0.40;0.00
70197;PMS5003;57582;-34.876;138.628;2023-07-02T16:24:00;1.67;1.20;0.40
70197;PMS5003;57582;-34.876;138.628;2023-07-02T16:27:00;0.70;0.10;0.00
70197;PMS5003;57582;-34.876;138.628;2023-07-02T16:29:59;0.83;0.43;0.00
70197;PMS5003;57582;-34.876;138.628;2023-07-02T16:32:59;0.73;0.73;0.70
70197;PMS5003;57582;-34.876;138.628;2023-07-02T16:36:04;1.00;1.00;0.87
70197;PMS5003;57582;-34.876;138.628;2023-07-02T16:38:59;1.77;1.77;0.87
70197;PMS5003;57582;-34.876;138.628;2023-07-02T16:41:59;1.93;0.93;0.80
70197;PMS5003;57582;-34.876;138.628;2023-07-02T16:44:59;1.00;0.73;0.00
70197;PMS5003;57582;-34.876;138.628;2023-07-02T16:47:59;1.00;1.00;0.33
70197;PMS5003;57582;-34.876;138.628;2023-07-02T16:51:02;1.90;1.10;0.20